Terminal Aerodrome Forecast
Issued by NWS Charleston, WV

Current Version | Previous Version | Graphics & Text | Print | Product List | Glossary On
Versions: 1 2 3 4 5 6 7 8 9 10 11 12 13 14 15 16 17 18 19 20 21 22 23
000
FTUS41 KRLX 180500
TAFPKB
TAF
KPKB 180525Z 1806/1906 00000KT 6SM BR SKC
     FM180700 00000KT 1SM BR SCT002
      TEMPO 1808/1812 1/4SM FG BKN002
     FM181300 00000KT 4SM BR FEW022
     FM181400 00000KT P6SM SKC
     FM181600 VRB03KT P6SM FEW040
     FM182200 VRB03KT P6SM FEW150=

USA.gov is the U.S. government's official web portal to all federal, state and local government web resources and services.